Time;durP1;ratioP1;P1;durP2;ratioP2;P2;SDS_P1;SDS_P2;PMS_P1;PMS_P2;Temp;Humidity;BMP_temperature;BMP_pressure;BME280_temperature;BME280_humidity;BME280_pressure;Samples;Min_cycle;Max_cycle;Signal;HPM_P1;HPM_P2
2022/10/08 00:00:09;;;;;;;7.32;1.48;;;13.10;99.90;;;;;;5005352;28;20405;-75
2022/10/08 00:02:38;;;;;;;7.13;0.90;;;13.10;99.90;;;;;;5004576;28;20053;-75
2022/10/08 00:05:05;;;;;;;5.65;0.93;;;13.10;99.90;;;;;;5002176;28;20452;-74
2022/10/08 00:07:32;;;;;;;11.93;1.85;;;13.10;99.90;;;;;;5005638;28;20666;-74
2022/10/08 00:09:58;;;;;;;7.18;1.63;;;13.10;99.90;;;;;;5004930;28;20033;-75
2022/10/08 00:12:24;;;;;;;11.45;2.42;;;13.10;99.90;;;;;;5006205;28;20041;-74
2022/10/08 00:14:50;;;;;;;7.13;1.13;;;13.20;99.90;;;;;;5000059;28;20405;-75
2022/10/08 00:17:17;;;;;;;5.40;1.08;;;13.20;99.90;;;;;;5006346;28;20049;-74
2022/10/08 00:19:43;;;;;;;7.07;1.10;;;13.30;99.90;;;;;;5006256;28;20048;-75
2022/10/08 00:22:09;;;;;;;4.40;0.80;;;13.30;99.90;;;;;;4999317;28;20499;-74
2022/10/08 00:24:37;;;;;;;5.38;1.30;;;13.30;99.90;;;;;;4986634;28;20038;-75
2022/10/08 00:27:04;;;;;;;5.45;0.90;;;13.30;99.90;;;;;;5005602;28;20042;-75
2022/10/08 00:29:32;;;;;;;5.40;0.75;;;13.40;99.90;;;;;;5002571;28;20029;-74
2022/10/08 00:31:58;;;;;;;6.13;0.80;;;13.40;99.90;;;;;;5004317;28;20049;-74
2022/10/08 00:34:24;;;;;;;7.05;0.82;;;13.40;99.90;;;;;;5000210;28;21031;-74
2022/10/08 00:36:54;;;;;;;7.47;1.25;;;13.40;99.90;;;;;;5002873;28;20045;-75
2022/10/08 00:39:23;;;;;;;7.45;1.60;;;13.50;99.90;;;;;;5004408;28;20046;-75
2022/10/08 00:41:52;;;;;;;7.63;0.70;;;13.50;99.90;;;;;;5018784;28;20034;-74
2022/10/08 00:44:50;;;;;;;6.40;0.88;;;13.50;99.90;;;;;;5000858;28;20519;-74
2022/10/08 00:47:26;;;;;;;6.72;0.80;;;13.50;99.90;;;;;;5005827;28;20045;-74
2022/10/08 00:49:56;;;;;;;6.80;1.33;;;13.50;99.90;;;;;;5002995;28;20035;-74
2022/10/08 00:52:25;;;;;;;3.85;0.80;;;13.50;99.90;;;;;;5004746;28;20056;-74
2022/10/08 00:54:51;;;;;;;11.43;1.33;;;13.50;99.90;;;;;;5000280;28;20400;-74
2022/10/08 00:57:20;;;;;;;8.13;1.25;;;13.50;99.90;;;;;;5004813;28;20125;-73
2022/10/08 00:59:46;;;;;;;6.60;0.80;;;13.50;99.90;;;;;;5004455;28;20053;-73
2022/10/08 01:02:12;;;;;;;4.00;0.85;;;13.50;99.90;;;;;;5014184;28;20065;-73
2022/10/08 01:04:40;;;;;;;4.38;1.00;;;13.40;99.90;;;;;;5000501;28;20029;-74
2022/10/08 01:07:27;;;;;;;4.22;0.57;;;13.40;99.90;;;;;;5000637;28;20392;-73
2022/10/08 01:10:19;;;;;;;7.38;1.45;;;13.40;99.90;;;;;;4990342;28;20499;-74
2022/10/08 01:13:06;;;;;;;5.78;0.80;;;13.30;99.90;;;;;;4998066;28;20045;-74
2022/10/08 01:15:35;;;;;;;7.82;1.08;;;13.20;99.90;;;;;;4998084;28;20033;-75
2022/10/08 01:18:33;;;;;;;4.93;0.70;;;13.10;99.90;;;;;;5014284;28;20029;-75
2022/10/08 01:21:04;;;;;;;4.95;0.75;;;13.10;99.90;;;;;;5004678;28;20637;-74
2022/10/08 01:23:49;;;;;;;6.47;1.05;;;13.00;99.90;;;;;;5018054;28;20045;-74
2022/10/08 01:26:34;;;;;;;7.32;1.48;;;13.00;99.90;;;;;;5000914;28;20038;-75
2022/10/08 01:29:20;;;;;;;6.72;1.08;;;13.00;99.90;;;;;;5018144;28;20045;-75
2022/10/08 01:31:53;;;;;;;7.03;1.30;;;12.90;99.90;;;;;;4989427;28;20030;-75
2022/10/08 01:34:43;;;;;;;4.63;0.88;;;12.90;99.90;;;;;;4999249;28;20544;-75
2022/10/08 01:37:16;;;;;;;3.10;0.70;;;12.90;99.90;;;;;;5002186;28;20026;-76
2022/10/08 01:39:46;;;;;;;8.25;1.50;;;12.90;99.90;;;;;;5018035;28;20045;-76
2022/10/08 01:42:12;;;;;;;4.68;0.88;;;12.90;99.90;;;;;;5001745;28;20045;-75
2022/10/08 01:44:50;;;;;;;5.70;0.80;;;12.90;99.90;;;;;;4967641;28;20025;-75
2022/10/08 01:47:22;;;;;;;2.95;0.57;;;12.90;99.90;;;;;;5001463;28;20092;-75
2022/10/08 01:49:58;;;;;;;3.67;0.60;;;12.90;99.90;;;;;;5001188;28;20031;-74
2022/10/08 01:52:32;;;;;;;4.38;1.00;;;12.90;99.90;;;;;;4998481;28;20053;-74
2022/10/08 01:55:03;;;;;;;4.43;0.60;;;12.90;99.90;;;;;;5000755;28;20034;-74
2022/10/08 01:57:32;;;;;;;6.25;0.95;;;12.90;99.90;;;;;;4998695;28;20041;-75
2022/10/08 02:00:09;;;;;;;3.53;0.70;;;12.90;99.90;;;;;;5012214;28;20039;-74
2022/10/08 02:02:39;;;;;;;4.15;0.60;;;12.90;99.90;;;;;;5013711;28;20054;-74
2022/10/08 02:05:06;;;;;;;3.33;0.60;;;12.90;99.90;;;;;;5000409;28;20056;-75
2022/10/08 02:07:36;;;;;;;4.65;0.90;;;12.90;99.90;;;;;;4988583;28;20034;-75
2022/10/08 02:10:11;;;;;;;10.18;0.90;;;12.90;99.90;;;;;;5002898;28;20030;-81
2022/10/08 02:12:39;;;;;;;3.60;0.82;;;12.90;99.90;;;;;;4987351;28;20037;-79
2022/10/08 02:15:13;;;;;;;5.70;0.98;;;12.80;99.90;;;;;;4985080;28;20037;-77
2022/10/08 02:17:56;;;;;;;1.95;0.80;;;12.70;99.90;;;;;;5014403;28;20530;-78
2022/10/08 02:20:41;;;;;;;3.58;0.60;;;12.70;99.90;;;;;;5019463;28;20043;-78
2022/10/08 02:23:57;;;;;;;3.55;0.80;;;12.70;99.90;;;;;;5016794;28;20520;-79
2022/10/08 02:26:33;;;;;;;6.05;2.13;;;12.60;99.90;;;;;;4973684;28;20045;-78
2022/10/08 02:29:09;;;;;;;4.97;2.15;;;12.60;99.90;;;;;;5004446;28;20485;-78
2022/10/08 02:31:53;;;;;;;3.38;1.42;;;12.60;99.90;;;;;;5000614;28;20030;-78
2022/10/08 02:34:30;;;;;;;8.77;3.40;;;12.60;99.90;;;;;;5002919;28;20445;-79
2022/10/08 02:37:06;;;;;;;8.23;2.65;;;12.60;99.90;;;;;;5004198;28;20477;-79
2022/10/08 02:39:37;;;;;;;4.15;2.25;;;12.60;99.90;;;;;;5007346;28;20041;-79
2022/10/08 02:42:08;;;;;;;7.65;3.63;;;12.60;99.90;;;;;;4990346;28;20030;-79
2022/10/08 02:45:06;;;;;;;7.85;4.70;;;12.60;99.90;;;;;;5000221;28;20393;-79
2022/10/08 02:47:37;;;;;;;9.15;4.47;;;12.60;99.90;;;;;;4976319;28;20038;-79
2022/10/08 02:50:09;;;;;;;4.90;2.25;;;12.60;99.90;;;;;;4989607;28;20038;-78
2022/10/08 02:52:39;;;;;;;5.13;2.63;;;12.60;99.90;;;;;;4992891;28;20037;-79
2022/10/08 02:55:18;;;;;;;4.93;2.95;;;12.70;99.90;;;;;;5004748;28;20038;-79
2022/10/08 02:57:49;;;;;;;6.47;2.88;;;12.60;99.90;;;;;;4976753;28;20034;-79
2022/10/08 03:00:16;;;;;;;6.30;2.60;;;12.70;99.90;;;;;;5019790;28;20492;-79
2022/10/08 03:02:49;;;;;;;3.83;1.77;;;12.70;99.90;;;;;;5006355;28;20050;-78
2022/10/08 03:05:18;;;;;;;6.32;3.08;;;12.70;99.90;;;;;;5004352;28;20033;-78
2022/10/08 03:07:47;;;;;;;7.57;3.35;;;12.70;99.90;;;;;;5017094;28;20029;-78
2022/10/08 03:10:13;;;;;;;5.95;3.35;;;12.70;99.90;;;;;;5000110;28;20026;-78
2022/10/08 03:12:39;;;;;;;7.47;3.97;;;12.70;99.90;;;;;;5002258;28;20040;-78
2022/10/08 03:15:10;;;;;;;8.02;3.50;;;12.70;99.90;;;;;;4999860;28;20060;-79
2022/10/08 03:17:40;;;;;;;8.35;4.65;;;12.70;99.90;;;;;;5018998;28;20038;-78
2022/10/08 03:20:08;;;;;;;7.22;3.00;;;12.70;99.90;;;;;;5018840;28;20400;-78
2022/10/08 03:22:35;;;;;;;8.38;3.65;;;12.70;99.90;;;;;;4990627;28;20389;-78
2022/10/08 03:25:02;;;;;;;7.78;3.85;;;12.70;99.90;;;;;;5001539;28;20057;-78
2022/10/08 03:27:28;;;;;;;5.05;2.63;;;12.60;99.90;;;;;;5003446;28;20038;-78
2022/10/08 03:29:56;;;;;;;8.27;3.92;;;12.70;99.90;;;;;;5017349;28;20328;-78
2022/10/08 03:32:23;;;;;;;8.93;3.95;;;12.60;99.90;;;;;;5004410;28;20041;-78
2022/10/08 03:34:49;;;;;;;8.63;3.67;;;12.60;99.90;;;;;;5015044;28;20037;-78
2022/10/08 03:37:16;;;;;;;6.25;3.58;;;12.60;99.90;;;;;;5002542;28;20133;-78
2022/10/08 03:39:42;;;;;;;8.52;4.05;;;12.60;99.90;;;;;;5002398;28;20045;-78
2022/10/08 03:42:09;;;;;;;7.05;3.10;;;12.60;99.90;;;;;;5000737;28;20045;-78
2022/10/08 03:44:35;;;;;;;11.32;4.38;;;12.60;99.90;;;;;;5001029;28;20510;-78
2022/10/08 03:47:01;;;;;;;13.40;5.28;;;12.60;99.90;;;;;;5002251;28;20026;-78
2022/10/08 03:49:27;;;;;;;6.93;3.17;;;12.60;99.90;;;;;;5003926;28;20038;-78
2022/10/08 03:51:54;;;;;;;10.32;6.38;;;12.50;99.90;;;;;;5013616;28;20045;-78
2022/10/08 03:54:20;;;;;;;9.75;4.95;;;12.50;99.90;;;;;;5008883;28;20038;-78
2022/10/08 03:56:46;;;;;;;7.78;3.53;;;12.50;99.90;;;;;;5011604;28;20052;-78
2022/10/08 03:59:12;;;;;;;8.02;2.70;;;12.50;99.90;;;;;;5006957;28;20127;-78
2022/10/08 04:01:39;;;;;;;6.70;2.78;;;12.60;99.90;;;;;;4996535;28;20034;-78
2022/10/08 04:04:05;;;;;;;12.32;4.10;;;12.50;99.90;;;;;;5016478;28;20096;-78
2022/10/08 04:06:31;;;;;;;7.10;3.40;;;12.60;99.90;;;;;;5000148;28;20034;-78
2022/10/08 04:09:00;;;;;;;6.35;3.22;;;12.60;99.90;;;;;;5013209;28;20037;-78
2022/10/08 04:11:27;;;;;;;8.00;4.22;;;12.50;99.90;;;;;;5005284;28;20034;-78
2022/10/08 04:13:54;;;;;;;12.23;5.28;;;12.50;99.90;;;;;;5001978;28;20060;-78
2022/10/08 04:16:20;;;;;;;14.52;7.13;;;12.50;99.90;;;;;;5004300;28;20151;-79
2022/10/08 04:18:47;;;;;;;6.95;4.35;;;12.50;99.90;;;;;;5007239;28;20030;-79
2022/10/08 04:21:16;;;;;;;15.63;8.13;;;12.50;99.90;;;;;;5000620;28;20038;-78
2022/10/08 04:23:43;;;;;;;14.20;5.03;;;12.50;99.90;;;;;;5002230;28;20041;-78
2022/10/08 04:26:11;;;;;;;7.47;4.85;;;12.50;99.90;;;;;;5000236;28;20409;-78
2022/10/08 04:28:38;;;;;;;18.15;8.13;;;12.50;99.90;;;;;;5000615;28;20026;-78
2022/10/08 04:31:08;;;;;;;7.28;4.85;;;12.40;99.90;;;;;;5005429;28;20041;-78
2022/10/08 04:33:35;;;;;;;10.23;5.57;;;12.40;99.90;;;;;;5014799;28;20049;-78
2022/10/08 04:36:07;;;;;;;9.02;5.00;;;12.40;99.90;;;;;;5000054;28;20412;-78
2022/10/08 04:38:33;;;;;;;13.70;6.82;;;12.40;99.90;;;;;;4990267;28;20038;-78
2022/10/08 04:41:08;;;;;;;10.63;5.40;;;12.40;99.90;;;;;;4997341;28;20042;-78
2022/10/08 04:43:36;;;;;;;10.95;6.82;;;12.40;99.90;;;;;;4998625;28;20461;-78
2022/10/08 04:46:03;;;;;;;10.05;5.63;;;12.40;99.90;;;;;;5001209;28;20034;-78
2022/10/08 04:48:30;;;;;;;10.38;6.82;;;12.40;99.90;;;;;;4996247;28;20038;-78
2022/10/08 04:50:58;;;;;;;11.43;6.60;;;12.40;99.90;;;;;;5001472;28;20723;-78
2022/10/08 04:53:27;;;;;;;10.35;5.38;;;12.40;99.90;;;;;;5004090;28;20038;-78
2022/10/08 04:55:54;;;;;;;10.52;6.43;;;12.40;99.90;;;;;;5011914;28;20038;-78
2022/10/08 04:58:22;;;;;;;9.60;5.30;;;12.40;99.90;;;;;;5006143;28;20057;-78
2022/10/08 05:00:48;;;;;;;7.57;6.07;;;12.40;99.90;;;;;;5004449;28;20038;-78
2022/10/08 05:03:14;;;;;;;11.38;6.78;;;12.40;99.90;;;;;;4985667;28;20054;-78
2022/10/08 05:05:42;;;;;;;10.80;6.68;;;12.40;99.90;;;;;;5001297;28;20041;-78
2022/10/08 05:08:09;;;;;;;8.48;5.10;;;12.40;99.90;;;;;;4999916;28;20848;-78
2022/10/08 05:10:35;;;;;;;12.05;5.97;;;12.40;99.90;;;;;;5001305;28;20025;-78
2022/10/08 05:13:02;;;;;;;11.52;6.30;;;12.40;99.90;;;;;;5001247;28;20033;-78
2022/10/08 05:15:30;;;;;;;9.70;5.22;;;12.40;99.90;;;;;;4999225;28;20030;-77
2022/10/08 05:17:56;;;;;;;9.43;5.32;;;12.40;99.90;;;;;;5003216;28;20432;-77
2022/10/08 05:20:22;;;;;;;10.77;6.30;;;12.40;99.90;;;;;;4999221;28;20041;-78
2022/10/08 05:22:48;;;;;;;13.52;8.00;;;12.40;99.90;;;;;;5015268;28;20042;-78
2022/10/08 05:25:15;;;;;;;9.23;6.05;;;12.40;99.90;;;;;;5001686;28;20042;-78
2022/10/08 05:27:41;;;;;;;10.20;5.18;;;12.40;99.90;;;;;;5000020;28;20385;-78
2022/10/08 05:30:08;;;;;;;14.55;9.23;;;12.50;99.90;;;;;;4986960;28;20512;-78
2022/10/08 05:32:34;;;;;;;17.77;9.98;;;12.40;99.90;;;;;;5008960;28;20149;-78
2022/10/08 05:35:00;;;;;;;11.02;7.70;;;12.40;99.90;;;;;;4984833;28;20033;-78
2022/10/08 05:37:26;;;;;;;9.27;8.15;;;12.50;99.90;;;;;;5006135;28;20037;-78
2022/10/08 05:39:53;;;;;;;13.95;8.45;;;12.50;99.90;;;;;;5000204;28;20060;-78
2022/10/08 05:42:19;;;;;;;12.88;7.93;;;12.40;99.90;;;;;;5015997;28;20037;-78
2022/10/08 05:44:45;;;;;;;9.73;6.90;;;12.50;99.90;;;;;;4998729;28;20041;-78
2022/10/08 05:47:11;;;;;;;12.38;7.88;;;12.40;99.90;;;;;;5005249;28;20033;-78
2022/10/08 05:49:37;;;;;;;14.70;9.02;;;12.40;99.90;;;;;;5019130;28;20041;-78
2022/10/08 05:52:04;;;;;;;13.70;8.02;;;12.50;99.90;;;;;;5015508;28;20034;-78
2022/10/08 05:54:30;;;;;;;16.13;10.70;;;12.40;99.90;;;;;;4983603;28;20030;-78
2022/10/08 05:56:56;;;;;;;16.02;11.15;;;12.50;99.90;;;;;;4988945;28;20034;-78
2022/10/08 05:59:23;;;;;;;14.93;8.30;;;12.50;99.90;;;;;;5004985;28;20274;-79
2022/10/08 06:01:50;;;;;;;10.80;7.57;;;12.40;99.90;;;;;;4999091;28;20042;-78
2022/10/08 06:04:19;;;;;;;13.73;8.75;;;12.50;99.90;;;;;;4996875;28;20049;-78
2022/10/08 06:06:46;;;;;;;12.95;8.73;;;12.50;99.90;;;;;;5001005;28;20052;-78
2022/10/08 06:09:15;;;;;;;16.33;10.30;;;12.50;99.90;;;;;;5020329;28;20041;-78
2022/10/08 06:11:41;;;;;;;10.40;8.40;;;12.50;99.90;;;;;;5007385;28;20030;-78
2022/10/08 06:14:10;;;;;;;8.57;7.32;;;12.50;99.90;;;;;;4988732;28;20033;-78
2022/10/08 06:16:37;;;;;;;10.75;7.88;;;12.50;99.90;;;;;;5011143;28;20041;-78
2022/10/08 06:19:06;;;;;;;14.55;8.63;;;12.50;99.90;;;;;;5019771;28;20041;-78
2022/10/08 06:21:33;;;;;;;14.10;9.10;;;12.50;99.90;;;;;;5000216;28;20049;-78
2022/10/08 06:24:04;;;;;;;12.32;8.77;;;12.50;99.90;;;;;;5002102;28;20038;-77
2022/10/08 06:26:36;;;;;;;14.48;8.30;;;12.40;99.90;;;;;;5021060;28;20312;-77
2022/10/08 06:29:09;;;;;;;13.30;8.38;;;12.40;99.90;;;;;;5008048;28;20017;-77
2022/10/08 06:31:35;;;;;;;12.13;8.75;;;12.40;99.90;;;;;;5004619;28;20045;-78
2022/10/08 06:34:03;;;;;;;13.70;7.90;;;12.40;99.90;;;;;;5004504;28;20037;-77
2022/10/08 06:36:29;;;;;;;13.15;7.82;;;12.40;99.90;;;;;;5006666;28;20046;-78
2022/10/08 06:38:58;;;;;;;13.45;8.75;;;12.50;99.90;;;;;;5008732;28;20034;-77
2022/10/08 06:41:26;;;;;;;14.25;8.88;;;12.40;99.90;;;;;;5019294;28;20064;-77
2022/10/08 06:43:53;;;;;;;8.98;7.40;;;12.50;99.90;;;;;;5001794;28;20030;-77
2022/10/08 06:46:19;;;;;;;11.77;8.13;;;12.40;99.90;;;;;;5001239;28;20038;-78
2022/10/08 06:48:46;;;;;;;11.20;7.43;;;12.50;99.90;;;;;;5018062;28;20031;-77
2022/10/08 06:51:15;;;;;;;19.15;11.10;;;12.50;99.90;;;;;;4991104;28;20030;-77
2022/10/08 06:53:42;;;;;;;11.35;7.88;;;12.50;99.90;;;;;;5006744;28;20452;-77
2022/10/08 06:56:14;;;;;;;13.82;7.90;;;12.40;99.90;;;;;;4988250;28;20559;-77
2022/10/08 06:58:42;;;;;;;10.27;6.90;;;12.40;99.90;;;;;;5005861;28;20026;-77
2022/10/08 07:01:23;;;;;;;10.38;7.15;;;12.40;99.90;;;;;;5003674;28;20034;-77
2022/10/08 07:03:58;;;;;;;8.63;5.90;;;12.40;99.90;;;;;;5005562;28;20469;-77
2022/10/08 07:06:25;;;;;;;15.32;9.15;;;12.40;99.90;;;;;;5010961;28;20044;-77
2022/10/08 07:08:56;;;;;;;11.30;6.07;;;12.40;99.90;;;;;;5013300;28;20025;-77
2022/10/08 07:11:23;;;;;;;12.15;8.43;;;12.40;99.90;;;;;;5027104;28;20477;-77
2022/10/08 07:13:50;;;;;;;12.77;6.80;;;12.40;99.90;;;;;;5006725;28;20485;-76
2022/10/08 07:16:22;;;;;;;8.32;5.25;;;12.40;99.90;;;;;;5006494;28;20037;-78
2022/10/08 07:18:49;;;;;;;8.68;4.00;;;12.40;99.90;;;;;;5007013;28;20041;-78
2022/10/08 07:21:18;;;;;;;7.45;4.40;;;12.40;99.90;;;;;;5007969;28;20468;-77
2022/10/08 07:23:44;;;;;;;7.07;5.07;;;12.40;99.90;;;;;;5002002;28;20034;-77
2022/10/08 07:26:17;;;;;;;11.27;6.43;;;12.50;99.90;;;;;;5003085;28;20038;-77
2022/10/08 07:29:07;;;;;;;9.00;4.55;;;12.50;99.90;;;;;;4999714;28;20618;-77
2022/10/08 07:31:35;;;;;;;8.38;4.50;;;12.50;99.90;;;;;;4990824;28;20038;-77
2022/10/08 07:34:08;;;;;;;9.45;3.85;;;12.60;99.90;;;;;;4986324;28;20335;-78
2022/10/08 07:36:36;;;;;;;8.23;5.15;;;12.60;99.90;;;;;;5000148;28;20039;-79
2022/10/08 07:39:05;;;;;;;6.82;4.47;;;12.70;99.90;;;;;;5016481;28;20037;-78
2022/10/08 07:41:32;;;;;;;9.43;6.03;;;12.70;99.90;;;;;;5002880;28;20045;-78
2022/10/08 07:44:00;;;;;;;8.93;4.70;;;12.80;99.90;;;;;;4996913;28;20029;-77
2022/10/08 07:46:28;;;;;;;7.00;3.95;;;12.80;99.90;;;;;;5002296;28;20042;-78
2022/10/08 07:48:57;;;;;;;10.70;4.28;;;12.90;99.90;;;;;;5001837;28;20040;-78
2022/10/08 07:51:25;;;;;;;6.72;2.90;;;12.90;99.90;;;;;;5006091;28;20037;-78
2022/10/08 07:53:51;;;;;;;9.70;2.63;;;12.90;99.90;;;;;;5002969;28;20041;-78
2022/10/08 07:56:18;;;;;;;9.38;2.50;;;13.00;99.90;;;;;;5003848;28;20035;-78
2022/10/08 07:58:46;;;;;;;8.18;3.30;;;13.00;99.90;;;;;;5019255;28;20495;-77
2022/10/08 08:01:15;;;;;;;7.32;2.42;;;13.00;99.90;;;;;;5004177;28;20030;-75
2022/10/08 08:03:42;;;;;;;6.93;1.58;;;13.10;99.90;;;;;;5001399;28;20050;-76
2022/10/08 08:06:15;;;;;;;4.25;1.50;;;13.10;99.90;;;;;;5006646;28;20045;-76
2022/10/08 08:08:43;;;;;;;9.20;2.35;;;13.20;99.90;;;;;;5003801;28;20037;-78
2022/10/08 08:11:11;;;;;;;5.80;1.20;;;13.20;99.90;;;;;;5004808;28;20036;-78
2022/10/08 08:13:39;;;;;;;6.90;1.13;;;13.30;99.90;;;;;;4989714;28;20038;-79
2022/10/08 08:16:08;;;;;;;4.60;0.80;;;13.30;99.90;;;;;;5006384;28;20041;-78
2022/10/08 08:18:38;;;;;;;5.18;0.70;;;13.40;99.90;;;;;;5006322;28;20492;-78
2022/10/08 08:21:12;;;;;;;8.00;1.48;;;13.40;99.90;;;;;;5002268;28;20039;-78
2022/10/08 08:23:41;;;;;;;4.18;0.70;;;13.50;99.90;;;;;;4989198;28;20057;-78
2022/10/08 08:26:14;;;;;;;4.93;1.52;;;13.50;99.90;;;;;;5001198;28;20033;-78
2022/10/08 08:28:40;;;;;;;;;;;13.50;99.90;;;;;;5002567;28;20037;-78
2022/10/08 08:31:11;;;;;;;5.57;0.60;;;13.50;99.90;;;;;;5015834;28;19909;-78
2022/10/08 08:33:38;;;;;;;5.95;0.70;;;13.60;99.90;;;;;;5004974;28;20029;-78
2022/10/08 08:36:04;;;;;;;8.05;0.70;;;13.60;99.90;;;;;;5005367;28;20034;-77
2022/10/08 08:38:33;;;;;;;3.75;0.50;;;13.70;99.90;;;;;;5005396;28;20038;-77
2022/10/08 08:41:15;;;;;;;4.18;0.70;;;13.70;99.90;;;;;;5000005;28;20042;-76
2022/10/08 08:43:41;;;;;;;6.90;0.97;;;13.70;99.90;;;;;;4989298;28;20034;-76
2022/10/08 08:46:12;;;;;;;5.75;0.70;;;13.80;99.90;;;;;;5004670;28;20036;-76
2022/10/08 08:48:42;;;;;;;7.22;0.80;;;13.80;99.90;;;;;;5001678;28;20397;-79
2022/10/08 08:51:08;;;;;;;4.15;0.60;;;13.90;99.90;;;;;;5005639;28;20037;-79
2022/10/08 08:53:35;;;;;;;6.63;0.50;;;13.90;99.90;;;;;;5001554;28;20026;-78
2022/10/08 08:56:05;;;;;;;4.28;0.40;;;14.00;99.90;;;;;;4998737;28;20026;-78
2022/10/08 08:58:47;;;;;;;2.67;0.38;;;14.10;99.90;;;;;;5007157;28;20046;-78
2022/10/08 09:01:28;;;;;;;;;;;14.20;99.90;;;;;;4991266;28;20096;-78
2022/10/08 09:04:03;;;;;;;3.65;0.40;;;14.20;99.90;;;;;;5004304;28;19930;-78
2022/10/08 09:06:32;;;;;;;5.18;0.50;;;14.30;99.90;;;;;;5005595;28;20049;-78
2022/10/08 09:09:14;;;;;;;3.70;0.35;;;14.30;99.90;;;;;;5004475;28;20030;-78
2022/10/08 09:11:42;;;;;;;6.07;0.50;;;14.40;99.90;;;;;;5000918;28;20037;-78
2022/10/08 09:14:10;;;;;;;7.47;0.93;;;14.40;99.90;;;;;;5003509;28;20053;-78
2022/10/08 09:16:38;;;;;;;9.55;1.08;;;14.50;99.90;;;;;;5004972;28;20039;-78
2022/10/08 09:19:04;;;;;;;3.83;0.55;;;14.50;99.90;;;;;;5000993;28;20037;-78
2022/10/08 09:21:32;;;;;;;5.35;0.50;;;14.70;99.90;;;;;;5003112;28;20049;-78
2022/10/08 09:23:59;;;;;;;3.00;0.82;;;14.80;99.90;;;;;;5002514;28;20033;-78
2022/10/08 09:26:31;;;;;;;3.05;0.40;;;14.80;99.90;;;;;;5003182;28;20037;-78
2022/10/08 09:28:59;;;;;;;3.33;0.40;;;14.80;99.90;;;;;;4990050;28;20034;-78
2022/10/08 09:31:38;;;;;;;3.33;0.30;;;14.90;99.90;;;;;;5018578;28;20033;-78
2022/10/08 09:34:09;;;;;;;6.32;0.60;;;15.20;99.90;;;;;;5003600;28;20030;-78
2022/10/08 09:37:04;;;;;;;5.35;0.40;;;15.50;99.90;;;;;;5018627;28;20042;-79
2022/10/08 09:39:33;;;;;;;5.38;0.45;;;15.80;99.90;;;;;;5000955;28;20037;-79
2022/10/08 09:42:06;;;;;;;5.90;0.47;;;16.00;99.90;;;;;;5015522;28;20038;-79
2022/10/08 09:44:55;;;;;;;2.53;0.40;;;16.00;99.90;;;;;;4988349;28;20489;-78
2022/10/08 09:47:23;;;;;;;5.68;0.47;;;16.00;99.90;;;;;;4999133;28;20041;-79
2022/10/08 09:50:11;;;;;;;2.47;0.60;;;16.00;99.90;;;;;;5005726;28;20037;-79
2022/10/08 09:52:39;;;;;;;5.20;0.40;;;16.00;99.90;;;;;;4999374;28;20499;-79
2022/10/08 09:55:17;;;;;;;3.00;0.35;;;16.00;99.90;;;;;;4996919;28;20026;-80
2022/10/08 09:57:49;;;;;;;3.85;0.40;;;15.80;99.90;;;;;;5016295;28;20026;-79
2022/10/08 10:00:31;;;;;;;3.15;0.30;;;15.70;99.90;;;;;;5004980;28;20049;-79
2022/10/08 10:02:59;;;;;;;7.07;1.00;;;15.60;99.90;;;;;;5001430;28;20516;-79
2022/10/08 10:05:29;;;;;;;1.90;0.25;;;15.60;99.90;;;;;;5002340;28;20132;-79
2022/10/08 10:07:56;;;;;;;2.38;0.28;;;15.60;99.90;;;;;;5005210;28;20030;-80
2022/10/08 10:10:37;;;;;;;2.38;0.30;;;15.60;99.90;;;;;;4991619;28;20370;-80
2022/10/08 10:13:21;;;;;;;2.20;0.28;;;15.70;99.90;;;;;;5004613;28;20060;-79
2022/10/08 10:16:01;;;;;;;3.22;0.30;;;16.00;99.90;;;;;;4984235;28;20069;-80
2022/10/08 10:18:46;;;;;;;3.90;0.20;;;16.50;99.90;;;;;;5002390;28;20493;-80
2022/10/08 10:21:18;;;;;;;2.60;0.40;;;17.00;99.90;;;;;;5018951;28;20034;-79
2022/10/08 10:23:53;;;;;;;3.78;0.30;;;17.50;99.90;;;;;;5004733;28;20034;-78
2022/10/08 10:26:24;;;;;;;5.07;0.82;;;17.80;99.90;;;;;;5007675;28;20038;-78
2022/10/08 10:29:11;;;;;;;5.57;0.57;;;18.00;99.90;;;;;;5007683;28;20049;-78
2022/10/08 10:31:45;;;;;;;3.60;0.30;;;18.40;99.90;;;;;;5003083;28;20045;-79
2022/10/08 10:34:16;;;;;;;3.33;0.50;;;18.40;99.90;;;;;;5003747;28;20488;-77
2022/10/08 10:36:57;;;;;;;5.90;0.70;;;18.50;99.90;;;;;;5000326;28;20026;-77
2022/10/08 10:39:40;;;;;;;5.88;0.50;;;18.40;99.90;;;;;;4995047;28;21388;-77
2022/10/08 10:42:28;;;;;;;4.50;0.60;;;18.20;99.90;;;;;;4997547;28;20499;-76
2022/10/08 10:45:18;;;;;;;4.35;0.70;;;17.80;99.90;;;;;;5002736;28;20370;-77
2022/10/08 10:47:46;;;;;;;3.10;0.40;;;17.40;99.90;;;;;;5002259;28;20049;-76
2022/10/08 10:50:14;;;;;;;4.88;0.40;;;17.20;99.90;;;;;;5004313;28;20481;-77
2022/10/08 10:52:51;;;;;;;4.80;0.43;;;17.00;99.90;;;;;;5017950;28;20125;-76
2022/10/08 10:55:30;;;;;;;2.83;0.30;;;16.80;99.90;;;;;;5004764;28;20377;-76
2022/10/08 10:58:21;;;;;;;1.60;0.28;;;16.60;99.90;;;;;;5001311;28;20065;-78
2022/10/08 11:01:11;;;;;;;2.17;0.30;;;16.40;99.90;;;;;;4991878;28;20073;-79
2022/10/08 11:03:44;;;;;;;3.45;0.55;;;16.80;99.90;;;;;;5008553;28;20065;-78
2022/10/08 11:06:20;;;;;;;1.55;0.20;;;17.60;99.90;;;;;;4999354;28;20397;-78
2022/10/08 11:09:01;;;;;;;3.28;0.38;;;18.30;99.90;;;;;;5019958;28;20935;-78
2022/10/08 11:11:48;;;;;;;3.97;0.40;;;18.60;99.90;;;;;;5006870;28;20423;-77
2022/10/08 11:14:36;;;;;;;2.25;0.30;;;18.70;99.90;;;;;;5005084;28;20037;-77
2022/10/08 11:17:18;;;;;;;4.63;0.43;;;18.80;99.90;;;;;;5006904;28;20424;-78
2022/10/08 11:19:52;;;;;;;3.20;0.40;;;18.70;99.90;;;;;;5002606;28;20034;-78
2022/10/08 11:22:30;;;;;;;4.15;0.30;;;18.50;99.90;;;;;;4974838;28;20056;-78
2022/10/08 11:25:22;;;;;;;2.17;0.40;;;18.10;99.90;;;;;;5003667;28;20033;-78
2022/10/08 11:28:43;;;;;;;2.30;0.40;;;17.80;99.90;;;;;;5018461;28;20037;-78
2022/10/08 11:31:33;;;;;;;3.90;0.40;;;17.60;99.90;;;;;;4970403;28;20029;-78
2022/10/08 11:34:02;;;;;;;2.63;0.30;;;18.00;99.90;;;;;;5005246;28;20045;-78
2022/10/08 11:36:34;;;;;;;3.72;0.40;;;18.10;99.90;;;;;;5006867;28;20034;-79
2022/10/08 11:39:40;;;;;;;4.60;0.30;;;18.00;99.90;;;;;;5004083;28;20025;-79
2022/10/08 11:42:32;;;;;;;3.28;0.32;;;18.00;99.90;;;;;;4989872;28;20058;-79
2022/10/08 11:45:24;;;;;;;1.90;0.40;;;18.10;99.90;;;;;;5003143;28;20036;-78
2022/10/08 11:47:56;;;;;;;4.75;0.60;;;18.20;99.90;;;;;;4991402;28;20038;-79
2022/10/08 11:50:36;;;;;;;5.93;0.52;;;18.50;99.90;;;;;;5002971;28;20029;-79
2022/10/08 11:53:14;;;;;;;3.13;0.38;;;19.10;99.90;;;;;;4974206;28;20117;-79
2022/10/08 11:55:53;;;;;;;6.53;0.55;;;20.00;99.90;;;;;;5002678;28;20373;-78
2022/10/08 11:58:27;;;;;;;3.38;0.40;;;20.90;99.90;;;;;;5002876;28;20033;-79
2022/10/08 12:01:03;;;;;;;3.15;0.52;;;21.80;99.90;;;;;;5018987;28;20034;-79
2022/10/08 12:03:33;;;;;;;4.25;0.57;;;22.70;99.90;;;;;;5016134;28;20072;-78
2022/10/08 12:06:23;;;;;;;4.07;0.50;;;23.30;99.00;;;;;;5003557;28;20397;-78
2022/10/08 12:08:49;;;;;;;3.45;0.50;;;23.90;97.80;;;;;;4989217;28;20477;-79
2022/10/08 12:11:31;;;;;;;5.32;0.60;;;24.50;96.00;;;;;;4989677;28;20042;-78
2022/10/08 12:14:13;;;;;;;4.53;0.60;;;25.00;94.30;;;;;;5001961;28;20041;-77
2022/10/08 12:16:54;;;;;;;;;;;25.50;92.80;;;;;;5015296;28;20041;-78
2022/10/08 12:19:33;;;;;;;2.42;0.57;;;25.60;90.40;;;;;;5004207;28;19917;-77
2022/10/08 12:22:02;;;;;;;3.10;0.50;;;25.60;88.40;;;;;;5000006;28;20057;-78
2022/10/08 12:24:52;;;;;;;4.97;0.70;;;24.90;88.60;;;;;;4988404;28;20037;-78
2022/10/08 12:27:38;;;;;;;4.65;0.60;;;24.50;86.80;;;;;;4989945;28;20037;-78
2022/10/08 12:30:15;;;;;;;4.05;0.93;;;24.40;86.80;;;;;;5002480;28;20393;-79
2022/10/08 12:32:42;;;;;;;4.05;0.88;;;24.20;87.30;;;;;;5005252;28;20033;-78
2022/10/08 12:35:26;;;;;;;3.33;0.60;;;24.30;87.10;;;;;;5016952;28;20034;-80
2022/10/08 12:38:12;;;;;;;4.22;0.60;;;25.10;83.30;;;;;;5004073;28;20393;-79
2022/10/08 12:40:44;;;;;;;3.42;0.70;;;25.60;79.80;;;;;;4998311;28;20034;-80
2022/10/08 12:43:40;;;;;;;4.28;0.57;;;26.30;79.50;;;;;;5000378;28;20559;-78
2022/10/08 12:46:19;;;;;;;2.08;0.55;;;26.80;75.20;;;;;;5000635;28;20038;-78
2022/10/08 12:49:16;;;;;;;3.78;0.50;;;27.10;75.60;;;;;;5006329;28;20033;-77
2022/10/08 12:52:09;;;;;;;3.15;0.47;;;28.00;72.90;;;;;;5018915;28;20037;-78
2022/10/08 12:54:45;;;;;;;4.75;0.60;;;28.30;70.30;;;;;;5001616;28;20044;-77
2022/10/08 12:57:17;;;;;;;5.85;0.55;;;28.40;67.30;;;;;;5003963;28;20034;-77
2022/10/08 12:59:45;;;;;;;6.72;0.50;;;27.60;68.30;;;;;;5000657;28;20045;-77
2022/10/08 13:02:37;;;;;;;3.97;0.57;;;27.10;67.40;;;;;;5000465;28;21519;-76
2022/10/08 13:05:30;;;;;;;3.75;0.63;;;26.40;68.10;;;;;;5001447;28;20046;-76
2022/10/08 13:07:56;;;;;;;3.97;1.00;;;25.00;69.30;;;;;;5017755;28;20053;-76
2022/10/08 13:10:28;;;;;;;3.25;0.60;;;23.80;70.40;;;;;;5005009;28;20030;-77
2022/10/08 13:13:06;;;;;;;2.05;0.50;;;22.90;73.10;;;;;;5003599;28;20488;-77